createdAt,value
2023-01-25T00:01:59.850Z,89.10
2023-01-25T00:04:26.744Z,89.80
2023-01-25T00:06:53.609Z,90.20
2023-01-25T00:09:21.751Z,90.00
2023-01-25T00:11:48.525Z,90.20
2023-01-25T00:14:15.494Z,90.30
2023-01-25T00:16:42.791Z,90.50
2023-01-25T00:19:09.827Z,90.50
2023-01-25T00:21:36.723Z,90.60
2023-01-25T00:24:03.643Z,90.70
2023-01-25T00:26:30.896Z,91.00
2023-01-25T00:28:57.754Z,91.00
2023-01-25T00:31:27.700Z,91.30
2023-01-25T00:34:01.173Z,90.90
2023-01-25T00:36:27.983Z,91.10
2023-01-25T00:38:54.795Z,91.30
2023-01-25T00:41:21.588Z,91.00
2023-01-25T00:43:48.394Z,91.40
2023-01-25T00:46:15.509Z,91.50
2023-01-25T00:48:42.331Z,91.50
2023-01-25T00:51:09.160Z,91.60
2023-01-25T00:53:36.117Z,91.40
2023-01-25T00:56:03.262Z,91.50
2023-01-25T00:58:30.761Z,91.30
2023-01-25T01:00:57.738Z,91.50
2023-01-25T01:03:24.741Z,91.60
2023-01-25T01:06:04.751Z,91.70
2023-01-25T01:08:33.315Z,91.40
2023-01-25T01:11:04.302Z,91.50
2023-01-25T01:13:31.200Z,91.50
2023-01-25T01:15:58.580Z,91.70
2023-01-25T01:18:25.397Z,91.60
2023-01-25T01:20:52.458Z,92.00
2023-01-25T01:23:21.657Z,91.90
2023-01-25T01:25:48.462Z,92.30
2023-01-25T01:28:15.285Z,92.30
2023-01-25T01:30:42.070Z,92.30
2023-01-25T01:33:09.227Z,92.30
2023-01-25T01:35:36.005Z,92.30
2023-01-25T01:38:02.905Z,92.10
2023-01-25T01:40:29.719Z,92.30
2023-01-25T01:43:00.244Z,92.20
2023-01-25T01:45:43.602Z,92.30
2023-01-25T01:48:40.618Z,92.30
2023-01-25T01:51:11.777Z,92.40
2023-01-25T01:53:38.947Z,92.50
2023-01-25T01:56:06.620Z,92.30
2023-01-25T01:58:33.569Z,92.30
2023-01-25T02:01:00.557Z,92.30
2023-01-25T02:03:27.889Z,92.30
2023-01-25T02:06:01.701Z,92.40
2023-01-25T02:08:28.699Z,92.30
2023-01-25T02:10:58.922Z,92.50
2023-01-25T02:13:25.914Z,92.30
2023-01-25T02:15:52.746Z,92.30
2023-01-25T02:18:19.713Z,92.30
2023-01-25T02:20:47.367Z,92.30
2023-01-25T02:23:32.928Z,92.40
2023-01-25T02:26:03.678Z,92.30
2023-01-25T02:28:33.588Z,92.10
2023-01-25T02:31:00.441Z,92.10
2023-01-25T02:33:27.530Z,92.00
2023-01-25T02:36:12.582Z,92.20
2023-01-25T02:38:40.239Z,92.30
2023-01-25T02:41:09.035Z,92.30
2023-01-25T02:43:35.997Z,92.30
2023-01-25T02:46:10.963Z,92.30
2023-01-25T02:48:37.889Z,92.30
2023-01-25T02:51:07.037Z,92.50
2023-01-25T02:53:34.000Z,92.60
2023-01-25T02:56:01.081Z,92.30
2023-01-25T02:58:28.676Z,92.60
2023-01-25T03:00:55.532Z,92.60
2023-01-25T03:03:22.767Z,92.30
2023-01-25T03:05:49.794Z,92.30
2023-01-25T03:08:16.659Z,92.50
2023-01-25T03:10:43.991Z,92.30
2023-01-25T03:13:11.371Z,92.40
2023-01-25T03:15:38.404Z,92.60
2023-01-25T03:18:05.346Z,92.60
2023-01-25T03:20:32.185Z,92.50
2023-01-25T03:22:59.032Z,92.60
2023-01-25T03:25:26.781Z,92.40
2023-01-25T03:28:00.557Z,92.60
2023-01-25T03:30:27.509Z,92.30
2023-01-25T03:32:56.796Z,92.30
2023-01-25T03:35:23.617Z,92.30
2023-01-25T03:37:52.389Z,92.70
2023-01-25T03:40:19.205Z,92.60
2023-01-25T03:42:50.041Z,92.70
2023-01-25T03:45:17.247Z,92.60
2023-01-25T03:47:44.084Z,92.50
2023-01-25T03:50:11.157Z,92.70
2023-01-25T03:52:42.195Z,92.70
2023-01-25T03:55:09.973Z,92.90
2023-01-25T03:57:41.118Z,93.00
2023-01-25T04:02:49.226Z,93.00
2023-01-25T04:05:18.744Z,92.90
2023-01-25T04:07:45.559Z,92.80
2023-01-25T04:10:14.557Z,92.50
2023-01-25T04:12:45.612Z,92.50
2023-01-25T04:15:12.474Z,92.60
2023-01-25T04:17:39.810Z,92.70
2023-01-25T04:20:16.189Z,92.70
2023-01-25T04:22:44.233Z,92.50
2023-01-25T04:25:11.544Z,92.50
2023-01-25T04:27:44.588Z,92.60
2023-01-25T04:30:15.072Z,92.30
2023-01-25T04:32:44.157Z,92.40
2023-01-25T04:35:25.154Z,92.30
2023-01-25T04:37:56.090Z,92.30
2023-01-25T04:40:25.461Z,92.30
2023-01-25T04:42:52.413Z,92.30
2023-01-25T04:45:19.575Z,92.10
2023-01-25T04:47:46.466Z,92.10
2023-01-25T04:50:13.269Z,92.00
2023-01-25T04:52:40.037Z,92.10
2023-01-25T04:55:07.769Z,92.10
2023-01-25T04:57:40.446Z,92.00
2023-01-25T05:00:07.746Z,91.80
2023-01-25T05:02:34.655Z,91.90
2023-01-25T05:05:01.606Z,91.90
2023-01-25T05:07:28.573Z,91.90
2023-01-25T05:09:55.418Z,92.10
2023-01-25T05:12:24.411Z,92.10
2023-01-25T05:14:59.615Z,92.00
2023-01-25T05:17:26.497Z,91.90
2023-01-25T05:19:53.282Z,92.30
2023-01-25T05:22:22.809Z,92.30
2023-01-25T05:24:52.665Z,92.20
2023-01-25T05:27:20.850Z,92.00
2023-01-25T05:29:53.436Z,92.10
2023-01-25T05:32:23.956Z,92.00
2023-01-25T05:34:51.076Z,92.20
2023-01-25T05:37:20.210Z,92.10
2023-01-25T05:39:51.509Z,92.20
2023-01-25T05:42:19.239Z,92.10
2023-01-25T05:44:47.918Z,92.00
2023-01-25T05:47:16.705Z,92.00
2023-01-25T05:49:43.700Z,92.20
2023-01-25T05:52:16.036Z,92.30
2023-01-25T05:54:43.506Z,92.00
2023-01-25T05:57:13.654Z,92.00
2023-01-25T05:59:40.555Z,92.10
2023-01-25T06:02:09.573Z,92.30
2023-01-25T06:04:37.620Z,92.10
2023-01-25T06:07:04.857Z,92.30
2023-01-25T06:09:32.926Z,92.30
2023-01-25T06:11:59.778Z,92.10
2023-01-25T06:14:26.578Z,92.30
2023-01-25T06:16:53.749Z,91.90
2023-01-25T06:19:44.351Z,92.10
2023-01-25T06:22:21.249Z,92.20
2023-01-25T06:24:48.035Z,92.30
2023-01-25T06:27:14.857Z,92.00
2023-01-25T06:29:41.716Z,92.30
2023-01-25T06:32:08.565Z,92.30
2023-01-25T06:34:35.472Z,92.30
2023-01-25T06:37:02.501Z,92.10
2023-01-25T06:39:29.826Z,92.30
2023-01-25T06:41:56.807Z,92.00
2023-01-25T06:44:23.789Z,92.30
2023-01-25T06:46:50.621Z,92.30
2023-01-25T06:49:17.533Z,92.10
2023-01-25T06:51:44.297Z,92.20
2023-01-25T06:54:11.106Z,92.30
2023-01-25T06:56:37.883Z,92.30
2023-01-25T06:59:04.712Z,92.30
2023-01-25T07:01:31.860Z,92.30
2023-01-25T07:03:59.005Z,92.30
2023-01-25T07:06:26.146Z,92.30
2023-01-25T07:08:52.939Z,92.60
2023-01-25T07:11:19.750Z,92.80
2023-01-25T07:13:46.925Z,92.90
2023-01-25T07:16:17.552Z,92.90
2023-01-25T07:18:44.443Z,92.60
2023-01-25T07:21:15.330Z,92.80
2023-01-25T07:23:42.266Z,93.00
2023-01-25T07:26:18.930Z,92.80
2023-01-25T07:28:46.097Z,92.30
2023-01-25T07:31:12.996Z,92.70
2023-01-25T07:33:39.839Z,92.80
2023-01-25T07:36:07.440Z,93.40
2023-01-25T07:38:34.331Z,93.10
2023-01-25T07:41:01.140Z,93.40
2023-01-25T07:43:28.003Z,93.80
2023-01-25T07:45:54.866Z,93.70
2023-01-25T07:48:22.549Z,93.60
2023-01-25T07:51:11.569Z,93.50
2023-01-25T07:53:41.715Z,93.30
2023-01-25T07:56:08.858Z,93.50
2023-01-25T07:58:35.667Z,93.60
2023-01-25T08:01:08.767Z,93.30
2023-01-25T08:03:35.589Z,93.80
2023-01-25T08:06:05.236Z,93.80
2023-01-25T08:08:34.087Z,93.70
2023-01-25T08:11:01.596Z,94.00
2023-01-25T08:13:28.394Z,93.90
2023-01-25T08:15:55.430Z,94.40
2023-01-25T08:18:22.260Z,94.30
2023-01-25T08:20:49.207Z,94.40
2023-01-25T08:23:16.192Z,94.50
2023-01-25T08:25:43.022Z,94.40
2023-01-25T08:28:09.807Z,94.90
2023-01-25T08:30:36.698Z,94.90
2023-01-25T08:33:06.191Z,95.00
2023-01-25T08:35:33.075Z,94.90
2023-01-25T08:37:59.882Z,95.10
2023-01-25T08:40:26.768Z,95.00
2023-01-25T08:42:53.608Z,95.00
2023-01-25T08:45:20.663Z,95.20
2023-01-25T08:47:47.460Z,95.10
2023-01-25T08:50:14.686Z,95.10
2023-01-25T08:52:41.459Z,95.20
2023-01-25T08:55:08.509Z,95.30
2023-01-25T08:57:35.274Z,95.00
2023-01-25T09:00:02.496Z,95.00
2023-01-25T09:02:29.397Z,94.50
2023-01-25T09:04:56.299Z,94.80
2023-01-25T09:07:23.183Z,94.90
2023-01-25T09:09:50.046Z,94.90
2023-01-25T09:12:16.898Z,94.60
2023-01-25T09:14:43.653Z,95.10
2023-01-25T09:17:10.473Z,94.80
2023-01-25T09:19:37.636Z,94.60
2023-01-25T09:22:04.502Z,94.90
2023-01-25T09:24:31.395Z,94.40
2023-01-25T09:27:00.043Z,94.80
2023-01-25T09:29:27.122Z,94.40
2023-01-25T09:31:54.230Z,94.80
2023-01-25T09:34:31.530Z,94.60
2023-01-25T09:36:58.384Z,94.70
2023-01-25T09:39:25.680Z,94.60
2023-01-25T09:42:15.271Z,94.40
2023-01-25T09:45:01.002Z,94.80
2023-01-25T09:47:42.793Z,94.40
2023-01-25T09:50:12.996Z,94.00
2023-01-25T09:52:58.878Z,94.10
2023-01-25T09:55:26.304Z,94.40
2023-01-25T09:57:54.194Z,94.40
2023-01-25T10:00:23.658Z,94.10
2023-01-25T10:02:55.021Z,94.30
2023-01-25T10:05:37.320Z,94.40
2023-01-25T10:08:06.969Z,94.10
2023-01-25T10:10:43.267Z,94.40
2023-01-25T10:13:11.560Z,94.20
2023-01-25T10:15:40.107Z,94.50
2023-01-25T10:18:25.830Z,94.50
2023-01-25T10:21:01.733Z,94.50
2023-01-25T10:23:28.665Z,94.50
2023-01-25T10:25:59.571Z,94.50
2023-01-25T10:28:32.446Z,94.20
2023-01-25T10:31:05.109Z,94.50
2023-01-25T10:33:34.976Z,94.50
2023-01-25T10:36:04.201Z,94.60
2023-01-25T10:38:35.511Z,94.50
2023-01-25T10:41:04.582Z,94.50
2023-01-25T10:43:31.562Z,94.60
2023-01-25T10:45:58.351Z,94.80
2023-01-25T10:48:30.111Z,94.60
2023-01-25T10:50:57.725Z,94.60
2023-01-25T10:53:24.602Z,94.60
2023-01-25T10:56:03.475Z,94.40
2023-01-25T10:58:37.035Z,94.60
2023-01-25T11:01:22.831Z,94.60
2023-01-25T11:03:49.656Z,94.90
2023-01-25T11:06:16.444Z,95.10
2023-01-25T11:08:43.409Z,94.80
2023-01-25T11:11:33.233Z,94.70
2023-01-25T11:14:00.492Z,94.60
2023-01-25T11:16:34.903Z,94.70
2023-01-25T11:19:03.271Z,94.70
2023-01-25T11:21:30.967Z,94.70
2023-01-25T11:24:07.126Z,94.30
2023-01-25T11:26:36.375Z,94.30
2023-01-25T11:29:06.144Z,94.80
2023-01-25T11:31:33.078Z,94.40
2023-01-25T11:34:00.046Z,94.30
2023-01-25T11:36:30.003Z,93.90
2023-01-25T11:38:57.049Z,93.90
2023-01-25T11:41:34.988Z,93.90
2023-01-25T11:44:17.314Z,93.50
2023-01-25T11:46:56.287Z,93.80
2023-01-25T11:49:28.385Z,93.90
2023-01-25T11:52:14.180Z,94.30
2023-01-25T11:55:02.005Z,94.10
2023-01-25T11:57:38.869Z,93.90
2023-01-25T12:00:24.598Z,93.90
2023-01-25T12:02:54.327Z,93.30
2023-01-25T12:05:27.136Z,92.80
2023-01-25T12:07:58.897Z,92.90
2023-01-25T12:10:27.298Z,93.10
2023-01-25T12:13:12.954Z,93.10
2023-01-25T12:15:43.518Z,93.50
2023-01-25T12:18:36.616Z,93.30
2023-01-25T12:21:31.289Z,93.30
2023-01-25T12:23:58.576Z,93.10
2023-01-25T12:26:46.557Z,93.30
2023-01-25T12:29:32.285Z,93.00
2023-01-25T12:32:09.331Z,92.70
2023-01-25T12:34:37.511Z,93.00
2023-01-25T12:37:06.699Z,92.70
2023-01-25T12:39:45.515Z,93.20
2023-01-25T12:42:15.155Z,93.00
2023-01-25T12:44:47.463Z,92.90
2023-01-25T12:47:15.427Z,92.90
2023-01-25T12:49:52.443Z,92.90
2023-01-25T12:52:21.816Z,92.70
2023-01-25T12:54:49.062Z,92.50
2023-01-25T12:57:17.270Z,92.50
2023-01-25T13:00:14.155Z,92.40
2023-01-25T13:02:59.593Z,92.20
2023-01-25T13:05:33.952Z,92.30
2023-01-25T13:08:00.834Z,92.70
2023-01-25T13:10:30.665Z,92.50
2023-01-25T13:13:03.755Z,92.90
2023-01-25T13:15:36.865Z,92.50
2023-01-25T13:18:27.013Z,92.60
2023-01-25T13:20:55.053Z,92.90
2023-01-25T13:23:31.789Z,93.10
2023-01-25T13:26:17.359Z,93.50
2023-01-25T13:28:46.648Z,93.70
2023-01-25T13:31:36.995Z,94.30
2023-01-25T13:34:14.160Z,95.00
2023-01-25T13:36:40.941Z,95.00
2023-01-25T13:39:27.138Z,95.00
2023-01-25T13:42:09.247Z,95.00
2023-01-25T13:44:38.509Z,95.30
2023-01-25T13:47:06.767Z,95.10
2023-01-25T13:49:40.833Z,95.00
2023-01-25T13:52:07.674Z,95.00
2023-01-25T13:54:36.492Z,95.70
2023-01-25T13:57:04.075Z,95.70
2023-01-25T13:59:31.000Z,95.20
2023-01-25T14:01:58.003Z,95.70
2023-01-25T14:04:24.859Z,95.10
2023-01-25T14:06:55.220Z,95.70
2023-01-25T14:09:22.699Z,95.70
2023-01-25T14:11:51.959Z,95.90
2023-01-25T14:14:28.857Z,95.90
2023-01-25T14:17:14.546Z,96.00
2023-01-25T14:19:44.788Z,95.70
2023-01-25T14:22:21.940Z,96.00
2023-01-25T14:25:08.229Z,96.00
2023-01-25T14:27:35.784Z,95.70
2023-01-25T14:30:03.548Z,95.90
2023-01-25T14:32:30.427Z,96.20
2023-01-25T14:34:57.337Z,96.10
2023-01-25T14:37:24.195Z,96.30
2023-01-25T14:39:51.061Z,96.30
2023-01-25T14:42:17.997Z,96.00
2023-01-25T14:44:44.825Z,96.30
2023-01-25T14:47:32.035Z,96.30
2023-01-25T14:50:17.899Z,96.50
2023-01-25T14:52:44.718Z,96.10
2023-01-25T14:55:12.383Z,96.50
2023-01-25T14:57:39.872Z,96.80
2023-01-25T15:00:09.519Z,96.80
2023-01-25T15:02:40.813Z,96.90
2023-01-25T15:05:16.390Z,96.80
2023-01-25T15:07:47.536Z,96.60
2023-01-25T15:10:17.412Z,96.70
2023-01-25T15:13:17.865Z,97.00
2023-01-25T15:15:58.321Z,97.10
2023-01-25T15:18:44.116Z,97.10
2023-01-25T15:21:12.064Z,97.10
2023-01-25T15:23:39.962Z,97.10
2023-01-25T15:26:12.524Z,97.10
2023-01-25T15:28:39.358Z,97.10
2023-01-25T15:31:06.281Z,97.10
2023-01-25T15:33:33.418Z,97.10
2023-01-25T15:36:00.242Z,97.10
2023-01-25T15:38:27.210Z,97.20
2023-01-25T15:41:00.436Z,97.10
2023-01-25T15:43:27.425Z,97.20
2023-01-25T15:45:56.797Z,97.10
2023-01-25T15:48:27.653Z,97.10
2023-01-25T15:50:55.642Z,97.20
2023-01-25T15:53:22.494Z,97.30
2023-01-25T15:55:51.194Z,97.20
2023-01-25T15:58:22.976Z,97.20
2023-01-25T16:00:50.460Z,97.20
2023-01-25T16:03:20.289Z,97.20
2023-01-25T16:05:50.096Z,97.20
2023-01-25T16:08:18.735Z,97.10
2023-01-25T16:10:45.614Z,97.30
2023-01-25T16:13:12.462Z,97.30
2023-01-25T16:15:39.432Z,97.50
2023-01-25T16:18:06.464Z,97.50
2023-01-25T16:20:33.303Z,97.40
2023-01-25T16:23:01.392Z,97.60
2023-01-25T16:25:28.216Z,97.60
2023-01-25T16:27:55.032Z,97.60
2023-01-25T16:30:24.073Z,97.70
2023-01-25T16:32:52.554Z,97.70
2023-01-25T16:35:19.499Z,97.80
2023-01-25T16:37:46.543Z,98.00
2023-01-25T16:40:21.195Z,97.60
2023-01-25T16:42:48.085Z,97.60
2023-01-25T16:45:17.047Z,97.80
2023-01-25T16:47:43.989Z,97.80
2023-01-25T16:50:14.996Z,97.80
2023-01-25T16:52:46.021Z,97.90
2023-01-25T16:55:13.259Z,97.50
2023-01-25T16:57:40.499Z,97.60
2023-01-25T17:00:08.854Z,97.60
2023-01-25T17:02:38.613Z,97.80
2023-01-25T17:05:07.550Z,97.70
2023-01-25T17:07:34.471Z,97.90
2023-01-25T17:10:01.270Z,97.70
2023-01-25T17:12:28.142Z,97.70
2023-01-25T17:14:54.901Z,97.70
2023-01-25T17:17:21.969Z,97.70
2023-01-25T17:19:49.093Z,97.50
2023-01-25T17:22:15.886Z,97.70
2023-01-25T17:24:42.749Z,97.60
2023-01-25T17:27:09.565Z,97.80
2023-01-25T17:29:36.314Z,97.70
2023-01-25T17:32:03.149Z,97.80
2023-01-25T17:34:29.914Z,97.70
2023-01-25T17:36:56.766Z,97.80
2023-01-25T17:39:24.882Z,97.80
2023-01-25T17:41:51.906Z,97.70
2023-01-25T17:44:22.483Z,97.70
2023-01-25T17:46:49.406Z,97.80
2023-01-25T17:49:19.206Z,97.90
2023-01-25T17:51:46.019Z,97.60
2023-01-25T17:54:13.264Z,97.80
2023-01-25T17:56:40.183Z,97.80
2023-01-25T17:59:09.040Z,97.70
2023-01-25T18:01:35.933Z,97.90
2023-01-25T18:04:05.800Z,97.80
2023-01-25T18:06:32.674Z,97.80
2023-01-25T18:09:00.182Z,97.70
2023-01-25T18:11:28.033Z,97.70
2023-01-25T18:13:55.960Z,97.80
2023-01-25T18:16:23.223Z,97.80
2023-01-25T18:18:50.798Z,97.80
2023-01-25T18:21:26.713Z,97.90
2023-01-25T18:23:57.313Z,97.80
2023-01-25T18:26:24.983Z,97.90
2023-01-25T18:28:55.331Z,97.70
2023-01-25T18:31:22.365Z,98.10
2023-01-25T18:33:49.310Z,98.00
2023-01-25T18:36:20.263Z,98.00
2023-01-25T18:38:47.123Z,97.90
2023-01-25T18:41:14.023Z,97.80
2023-01-25T18:43:40.872Z,97.80
2023-01-25T18:46:07.846Z,97.90
2023-01-25T18:48:34.778Z,97.80
2023-01-25T18:51:08.259Z,97.70
2023-01-25T18:53:36.130Z,97.80
2023-01-25T18:56:02.987Z,97.70
2023-01-25T18:58:30.844Z,97.80
2023-01-25T19:01:04.184Z,97.80
2023-01-25T19:03:31.045Z,97.90
2023-01-25T19:05:58.411Z,98.00
2023-01-25T19:08:28.201Z,98.00
2023-01-25T19:11:18.351Z,98.00
2023-01-25T19:13:45.166Z,97.90
2023-01-25T19:16:21.831Z,98.10
2023-01-25T19:18:50.078Z,98.20
2023-01-25T19:21:17.796Z,98.20
2023-01-25T19:23:44.713Z,98.20
2023-01-25T19:26:12.296Z,98.10
2023-01-25T19:28:39.366Z,98.20
2023-01-25T19:31:16.313Z,98.30
2023-01-25T19:33:43.489Z,98.10
2023-01-25T19:36:15.589Z,98.10
2023-01-25T19:38:42.469Z,98.00
2023-01-25T19:41:10.020Z,98.00
2023-01-25T19:43:36.855Z,98.10
2023-01-25T19:46:10.575Z,98.10
2023-01-25T19:48:37.586Z,98.30
2023-01-25T19:51:08.333Z,98.30
2023-01-25T19:53:35.134Z,98.10
2023-01-25T19:56:03.569Z,98.20
2023-01-25T19:58:30.496Z,98.30
2023-01-25T20:01:04.513Z,98.40
2023-01-25T20:03:31.647Z,98.40
2023-01-25T20:05:59.114Z,98.40
2023-01-25T20:08:32.400Z,98.60
2023-01-25T20:10:59.620Z,98.60
2023-01-25T20:13:26.591Z,98.90
2023-01-25T20:15:53.585Z,98.70
2023-01-25T20:18:20.643Z,98.80
2023-01-25T20:20:56.937Z,98.70
2023-01-25T20:23:23.837Z,98.80
2023-01-25T20:26:01.334Z,98.70
2023-01-25T20:28:28.245Z,98.70
2023-01-25T20:30:55.197Z,98.80
2023-01-25T20:33:22.080Z,98.80
2023-01-25T20:35:50.201Z,98.70
2023-01-25T20:38:17.152Z,98.70
2023-01-25T20:40:44.117Z,98.80
2023-01-25T20:43:11.069Z,98.80
2023-01-25T20:45:38.349Z,98.70
2023-01-25T20:48:05.461Z,98.80
2023-01-25T20:50:32.273Z,98.80
2023-01-25T20:52:59.122Z,98.90
2023-01-25T20:55:26.426Z,98.90
2023-01-25T20:57:54.414Z,98.90
2023-01-25T21:00:21.537Z,98.80
2023-01-25T21:02:48.314Z,98.90
2023-01-25T21:05:15.113Z,98.80
2023-01-25T21:07:42.239Z,98.90
2023-01-25T21:10:09.493Z,98.90
2023-01-25T21:12:36.276Z,98.90
2023-01-25T21:15:03.133Z,99.00
2023-01-25T21:17:30.873Z,99.00
2023-01-25T21:19:58.115Z,99.00
2023-01-25T21:22:25.040Z,99.00
2023-01-25T21:24:51.875Z,99.00
2023-01-25T21:27:18.699Z,99.10
2023-01-25T21:29:45.516Z,99.10
2023-01-25T21:32:12.281Z,99.20
2023-01-25T21:34:39.129Z,99.20
2023-01-25T21:37:05.937Z,99.10
2023-01-25T21:39:32.733Z,99.20
2023-01-25T21:41:59.499Z,99.30
2023-01-25T21:44:45.123Z,99.30
2023-01-25T21:50:17.492Z,99.30
2023-01-25T21:52:44.264Z,99.30
2023-01-25T21:55:11.082Z,99.30
2023-01-25T21:57:41.050Z,99.40
2023-01-25T22:00:09.075Z,99.30
2023-01-25T22:02:36.057Z,99.30
2023-01-25T22:05:02.924Z,99.40
2023-01-25T22:07:29.938Z,99.40
2023-01-25T22:09:57.708Z,99.40
2023-01-25T22:12:24.563Z,99.40
2023-01-25T22:14:51.447Z,99.60
2023-01-25T22:17:19.738Z,99.60
2023-01-25T22:19:46.545Z,99.60
2023-01-25T22:22:13.320Z,99.60
2023-01-25T22:24:40.152Z,99.50
2023-01-25T22:27:25.382Z,99.60
2023-01-25T22:29:52.249Z,99.60
2023-01-25T22:32:19.095Z,99.50
2023-01-25T22:34:45.902Z,99.40
2023-01-25T22:37:12.698Z,99.40
2023-01-25T22:39:39.486Z,99.40
2023-01-25T22:42:06.254Z,99.40
2023-01-25T22:44:33.053Z,99.40
2023-01-25T22:46:59.829Z,99.40
2023-01-25T22:49:26.661Z,99.40
2023-01-25T22:51:53.410Z,99.40
2023-01-25T22:54:20.294Z,99.40
2023-01-25T22:56:47.053Z,99.20
2023-01-25T22:59:18.860Z,99.20
2023-01-25T23:01:45.950Z,98.90
2023-01-25T23:04:12.907Z,98.80
2023-01-25T23:06:39.811Z,98.80
2023-01-25T23:09:06.676Z,98.60
2023-01-25T23:11:37.614Z,98.60
2023-01-25T23:14:26.729Z,98.40
2023-01-25T23:17:13.512Z,98.40
2023-01-25T23:19:40.331Z,98.30
2023-01-25T23:22:07.208Z,98.20
2023-01-25T23:24:34.001Z,98.10
2023-01-25T23:27:00.801Z,98.10
2023-01-25T23:29:27.615Z,98.10
2023-01-25T23:31:54.514Z,98.10
2023-01-25T23:34:21.380Z,98.00
2023-01-25T23:36:48.248Z,98.00
2023-01-25T23:39:15.228Z,98.00
2023-01-25T23:41:42.016Z,98.10
2023-01-25T23:44:09.876Z,98.10
2023-01-25T23:46:36.958Z,98.00
2023-01-25T23:49:03.767Z,98.20
2023-01-25T23:51:30.590Z,98.10
2023-01-25T23:53:58.413Z,98.20
2023-01-25T23:56:25.263Z,98.10
2023-01-25T23:58:52.035Z,98.10
